Cleo, Mississippi
Current Conditions -  °F | °C
As of 2:15 PM on Thursday 23 Oct 2014 (Local Time) from KPIB Reporting Station
Clear Clear  
Wind Chill: 22°   Ceiling: Unl
Heat Index: 22°   Visibility: 10mi
Dew Point: -2°   Wind: 3mph
Humidity: 20%   Direction: 20°NNE
Pressure: 30.09"   Gusts: NA
Location:  31.6875°N, 89.1116°W
Report Text: KPIB 231915Z AUTO 02003KT 10SM CLR 22/M02 A3009 RMK AO1
Loading
Personal Weather Stations






























Interactive Weather Map
Tropical Storm Tracking
New forecast layout! Learn more

10-Day Weather Forecast

Advertisements
Track Severe Weather on mobile